Time;durP1;ratioP1;P1;durP2;ratioP2;P2;SDS_P1;SDS_P2;PMS_P1;PMS_P2;Temp;Humidity;BMP_temperature;BMP_pressure;BME280_temperature;BME280_humidity;BME280_pressure;Samples;Min_cycle;Max_cycle;Signal;HPM_P1;HPM_P2
2023/06/13 00:00:21;;;;;;;;;4.00;2.00;;;;;24.70;30.66;101204.05;112275;1256;20963;-38
2023/06/13 00:03:09;;;;;;;;;3.00;2.00;;;;;24.71;30.69;101205.77;112129;1263;22653;-37
2023/06/13 00:05:36;;;;;;;;;4.00;4.00;;;;;24.72;30.61;101215.11;112246;1262;19928;-36
2023/06/13 00:08:04;;;;;;;;;2.00;2.00;;;;;24.71;30.74;101213.79;112231;1263;19664;-36
2023/06/13 00:10:32;;;;;;;;;2.00;2.00;;;;;24.71;30.78;101218.55;112241;1263;19887;-38
2023/06/13 00:12:59;;;;;;;;;2.00;2.00;;;;;24.71;30.66;101224.50;112114;1263;18495;-37
2023/06/13 00:15:27;;;;;;;;;2.00;2.00;;;;;24.71;30.62;101222.65;112194;1263;22186;-38
2023/06/13 00:17:55;;;;;;;;;2.00;2.00;;;;;24.71;30.64;101226.02;112116;1247;19699;-38
2023/06/13 00:20:24;;;;;;;;;2.00;2.00;;;;;24.71;30.75;101230.71;112166;1263;20335;-38
2023/06/13 00:22:52;;;;;;;;;4.00;4.00;;;;;24.70;30.65;101229.35;112118;1247;20836;-38
2023/06/13 00:25:19;;;;;;;;;3.00;3.00;;;;;24.71;30.60;101228.55;112114;1263;19848;-38
2023/06/13 00:27:47;;;;;;;;;3.00;2.00;;;;;24.70;30.67;101223.05;112234;1262;20267;-38
2023/06/13 00:30:14;;;;;;;;;2.00;2.00;;;;;24.69;30.67;101220.65;112117;1247;19582;-37
2023/06/13 00:32:42;;;;;;;;;4.00;4.00;;;;;24.69;30.62;101218.49;112216;1263;18414;-38
2023/06/13 00:35:10;;;;;;;;;2.00;2.00;;;;;24.69;30.73;101222.00;112110;1248;19951;-38
2023/06/13 00:37:38;;;;;;;;;4.00;4.00;;;;;24.70;30.56;101217.49;112186;1256;19533;-37
2023/06/13 00:40:06;;;;;;;;;2.00;2.00;;;;;24.70;30.76;101212.84;112230;1247;19773;-38
2023/06/13 00:42:33;;;;;;;;;4.00;4.00;;;;;24.70;30.79;101210.03;112145;1263;20233;-38
2023/06/13 00:45:01;;;;;;;;;2.00;2.00;;;;;24.70;30.89;101211.72;112255;1263;22582;-37
2023/06/13 00:47:28;;;;;;;;;2.00;2.00;;;;;24.71;30.84;101211.46;112122;1263;19533;-38
2023/06/13 00:49:56;;;;;;;;;2.00;2.00;;;;;24.71;30.74;101208.10;112292;1263;18934;-38
2023/06/13 00:52:24;;;;;;;;;2.00;2.00;;;;;24.72;30.71;101207.13;112178;1247;20151;-37
2023/06/13 00:54:51;;;;;;;;;3.00;3.00;;;;;24.72;30.66;101203.63;112275;1263;19863;-38
2023/06/13 00:57:19;;;;;;;;;4.00;3.00;;;;;24.70;30.75;101205.64;111995;1263;217169;-37
2023/06/13 00:59:46;;;;;;;;;2.00;2.00;;;;;24.71;30.69;101205.70;112267;1263;20908;-37
2023/06/13 01:02:15;;;;;;;;;4.00;4.00;;;;;24.70;30.76;101208.41;112159;1263;18490;-38
2023/06/13 01:04:42;;;;;;;;;4.00;4.00;;;;;24.68;30.87;101208.79;112212;1263;18610;-37
2023/06/13 01:07:11;;;;;;;;;4.00;4.00;;;;;24.69;30.83;101200.58;112112;1247;21023;-38
2023/06/13 01:09:38;;;;;;;;;2.00;2.00;;;;;24.67;30.76;101201.65;112152;1263;18798;-37
2023/06/13 01:12:06;;;;;;;;;4.00;4.00;;;;;24.69;30.76;101202.01;112234;1247;20382;-37
2023/06/13 01:14:34;;;;;;;;;4.00;4.00;;;;;24.69;30.92;101202.69;112152;1255;20943;-37
2023/06/13 01:17:03;;;;;;;;;5.00;5.00;;;;;24.70;30.80;101201.27;112257;1263;19544;-37
2023/06/13 01:19:31;;;;;;;;;4.00;4.00;;;;;24.70;31.04;101202.44;112169;1263;20100;-37
2023/06/13 01:21:59;;;;;;;;;4.00;4.00;;;;;24.69;30.96;101203.95;112173;1255;19712;-37
2023/06/13 01:24:27;;;;;;;;;4.00;4.00;;;;;24.70;30.97;101201.60;112248;1263;19743;-37
2023/06/13 01:26:56;;;;;;;;;4.00;4.00;;;;;24.69;31.06;101200.66;112083;1263;19977;-37
2023/06/13 01:29:23;;;;;;;;;4.00;4.00;;;;;24.68;31.02;101200.39;112141;1247;19684;-37
2023/06/13 01:31:51;;;;;;;;;4.00;4.00;;;;;24.68;30.90;101196.27;112276;1263;20828;-38
2023/06/13 01:37:21;;;;;;;;;4.00;4.00;;;;;24.70;30.95;101199.45;112278;1263;21025;-38
2023/06/13 01:39:48;;;;;;;;;4.00;4.00;;;;;24.68;31.11;101193.14;112118;1263;18531;-38
2023/06/13 01:42:16;;;;;;;;;4.00;4.00;;;;;24.68;31.22;101200.20;112274;1263;19015;-37
2023/06/13 01:44:44;;;;;;;;;5.00;5.00;;;;;24.68;31.02;101199.04;112157;1248;20591;-37
2023/06/13 01:47:11;;;;;;;;;4.00;4.00;;;;;24.68;31.19;101204.10;112297;1247;18349;-38
2023/06/13 01:49:39;;;;;;;;;4.00;4.00;;;;;24.68;31.28;101197.91;112091;1263;21125;-37
2023/06/13 01:52:06;;;;;;;;;4.00;4.00;;;;;24.69;31.10;101196.19;112269;1263;19290;-38
2023/06/13 01:54:34;;;;;;;;;;;;;;;24.68;31.20;101191.33;112182;1263;19861;-37
2023/06/13 01:57:02;;;;;;;;;4.00;4.00;;;;;24.66;31.28;101191.67;112282;1263;19808;-37
2023/06/13 01:59:29;;;;;;;;;4.00;4.00;;;;;24.66;31.11;101187.84;112244;1263;22196;-37
2023/06/13 02:01:57;;;;;;;;;4.00;4.00;;;;;24.66;31.19;101188.80;112361;1247;18158;-38
2023/06/13 02:04:24;;;;;;;;;4.00;4.00;;;;;24.67;31.11;101189.76;112267;1263;20196;-38
2023/06/13 02:06:52;;;;;;;;;4.00;4.00;;;;;24.68;31.31;101189.00;112394;1263;21178;-37
2023/06/13 02:09:19;;;;;;;;;5.00;4.00;;;;;24.66;31.24;101186.95;112294;1263;18836;-38
2023/06/13 02:11:47;;;;;;;;;4.67;4.67;;;;;24.66;31.24;101182.47;112393;1256;18857;-38
2023/06/13 02:14:14;;;;;;;;;4.50;4.50;;;;;24.65;31.24;101182.00;112285;1263;20603;-38
2023/06/13 02:16:41;;;;;;;;;2.00;2.00;;;;;24.64;31.37;101181.58;112309;1247;18248;-37
2023/06/13 02:19:10;;;;;;;;;4.00;4.00;;;;;24.64;31.27;101181.02;112167;1263;18621;-38
2023/06/13 02:21:37;;;;;;;;;6.00;4.50;;;;;24.65;31.29;101178.59;112219;1263;19676;-37
2023/06/13 02:24:05;;;;;;;;;4.00;4.00;;;;;24.64;31.39;101178.45;112119;1247;19741;-37
2023/06/13 02:26:32;;;;;;;;;4.00;4.00;;;;;24.64;31.37;101177.23;112208;1263;20341;-38
2023/06/13 02:29:00;;;;;;;;;4.00;4.00;;;;;24.64;31.30;101177.90;112148;1248;22241;-37
2023/06/13 02:31:28;;;;;;;;;4.33;4.33;;;;;24.64;31.42;101179.17;112159;1263;18530;-39
2023/06/13 02:33:55;;;;;;;;;4.00;4.00;;;;;24.64;31.44;101180.27;112117;1263;19949;-38
2023/06/13 02:36:23;;;;;;;;;4.00;4.00;;;;;24.64;31.49;101171.54;112184;1263;20691;-38
2023/06/13 02:38:50;;;;;;;;;4.33;4.00;;;;;24.63;31.56;101164.70;112109;1263;19489;-38
2023/06/13 02:41:18;;;;;;;;;5.00;4.00;;;;;24.63;31.58;101169.88;112179;1263;19885;-38
2023/06/13 02:43:45;;;;;;;;;2.67;2.67;;;;;24.64;31.47;101176.30;112108;1247;20687;-37
2023/06/13 02:46:13;;;;;;;;;5.00;5.00;;;;;24.65;31.41;101180.56;112153;1263;18173;-38
2023/06/13 02:48:40;;;;;;;;;4.00;4.00;;;;;24.64;31.54;101180.89;112137;1249;21331;-37
2023/06/13 02:51:08;;;;;;;;;5.00;5.00;;;;;24.63;31.53;101180.94;112142;1263;20904;-37
2023/06/13 02:53:35;;;;;;;;;5.00;4.00;;;;;24.62;31.44;101182.70;112094;1263;19889;-38
2023/06/13 02:56:03;;;;;;;;;4.00;4.00;;;;;24.63;31.65;101184.52;112157;1263;19945;-38
2023/06/13 02:58:30;;;;;;;;;5.00;4.00;;;;;24.63;31.70;101186.46;112091;1263;20925;-37
2023/06/13 03:00:58;;;;;;;;;2.00;2.00;;;;;24.63;31.70;101186.25;112191;1248;19743;-38
2023/06/13 03:03:25;;;;;;;;;2.00;2.00;;;;;24.63;31.73;101184.05;112102;1263;18833;-38
2023/06/13 03:05:56;;;;;;;;;7.33;4.00;;;;;24.64;31.74;101186.42;112179;1263;20731;-38
2023/06/13 03:08:23;;;;;;;;;4.00;4.00;;;;;24.62;31.74;101185.65;112146;1263;19956;-38
2023/06/13 03:10:51;;;;;;;;;5.00;5.00;;;;;24.63;31.68;101188.14;112277;1263;19922;-38
2023/06/13 03:13:18;;;;;;;;;4.50;4.00;;;;;24.62;31.88;101181.05;112142;1247;20982;-38
2023/06/13 03:15:47;;;;;;;;;4.00;4.00;;;;;24.62;31.81;101180.63;112278;1263;18167;-38
2023/06/13 03:18:14;;;;;;;;;4.00;4.00;;;;;24.62;31.89;101179.52;112122;1263;18622;-38
2023/06/13 03:20:45;;;;;;;;;4.00;4.00;;;;;24.62;31.86;101177.22;112270;1247;19555;-38
2023/06/13 03:23:13;;;;;;;;;2.00;2.00;;;;;24.63;31.67;101180.56;112159;1263;19772;-37
2023/06/13 03:25:41;;;;;;;;;4.00;4.00;;;;;24.64;31.86;101180.18;112247;1263;19955;-37
2023/06/13 03:28:09;;;;;;;;;4.00;4.00;;;;;24.64;31.85;101178.15;112138;1263;20770;-38
2023/06/13 03:30:36;;;;;;;;;5.50;4.50;;;;;24.62;32.01;101176.91;112284;1263;19870;-38
2023/06/13 03:33:03;;;;;;;;;4.00;4.00;;;;;24.62;31.92;101175.86;112165;1263;19579;-38
2023/06/13 03:35:31;;;;;;;;;4.00;4.00;;;;;24.62;31.97;101178.31;112303;1263;19761;-38
2023/06/13 03:37:59;;;;;;;;;4.50;4.00;;;;;24.62;31.95;101175.52;112192;1263;19827;-38
2023/06/13 03:40:26;;;;;;;;;2.00;2.00;;;;;24.61;32.08;101177.20;112300;1263;18803;-38
2023/06/13 03:42:54;;;;;;;;;4.00;4.00;;;;;24.62;32.16;101178.36;112148;1255;19399;-38
2023/06/13 03:45:24;;;;;;;;;4.00;4.00;;;;;24.61;32.10;101182.47;112285;1263;18333;-38
2023/06/13 03:47:51;;;;;;;;;4.00;4.00;;;;;24.61;32.05;101176.51;112284;1263;22099;-38
2023/06/13 03:50:19;;;;;;;;;4.00;4.00;;;;;24.61;32.11;101172.80;112142;1263;21837;-38
2023/06/13 03:52:46;;;;;;;;;5.00;4.00;;;;;24.60;32.15;101170.98;112257;1247;19421;-38
2023/06/13 03:55:14;;;;;;;;;5.00;4.00;;;;;24.59;32.26;101168.11;112168;1248;19061;-38
2023/06/13 03:57:42;;;;;;;;;4.00;4.00;;;;;24.61;32.20;101172.89;112243;1263;20901;-38
2023/06/13 04:00:09;;;;;;;;;2.00;2.00;;;;;24.60;32.16;101176.31;112138;1247;18734;-38
2023/06/13 04:02:37;;;;;;;;;4.00;4.00;;;;;24.60;32.25;101184.47;112189;1263;21156;-38
2023/06/13 04:05:06;;;;;;;;;6.00;5.00;;;;;24.60;32.25;101186.83;112138;1263;19330;-38
2023/06/13 04:07:34;;;;;;;;;3.33;3.33;;;;;24.61;32.47;101184.50;112167;1247;20864;-38
2023/06/13 04:10:02;;;;;;;;;5.00;5.00;;;;;24.61;32.30;101187.06;112282;1263;20300;-38
2023/06/13 04:12:30;;;;;;;;;4.00;4.00;;;;;24.61;32.30;101185.31;112112;1263;21820;-38
2023/06/13 04:14:57;;;;;;;;;4.00;4.00;;;;;24.61;32.36;101181.83;112218;1263;18209;-38
2023/06/13 04:17:25;;;;;;;;;4.00;4.00;;;;;24.60;32.32;101181.14;112132;1247;19985;-38
2023/06/13 04:19:52;;;;;;;;;2.00;2.00;;;;;24.61;32.47;101182.33;112227;1248;20783;-38
2023/06/13 04:22:19;;;;;;;;;4.00;4.00;;;;;24.61;32.27;101182.68;112114;1263;18512;-38
2023/06/13 04:24:47;;;;;;;;;4.00;4.00;;;;;24.61;32.43;101180.33;112229;1262;19979;-38
2023/06/13 04:27:19;;;;;;;;;4.50;4.50;;;;;24.63;32.46;101182.20;112164;1263;19347;-38
2023/06/13 04:29:48;;;;;;;;;2.00;2.00;;;;;24.62;32.49;101179.31;112254;1263;19860;-38
2023/06/13 04:32:17;;;;;;;;;4.00;4.00;;;;;24.62;32.47;101179.45;112072;1263;19965;-38
2023/06/13 04:34:44;;;;;;;;;4.00;4.00;;;;;24.61;32.49;101180.81;112143;1263;20671;-38
2023/06/13 04:37:13;;;;;;;;;5.50;5.00;;;;;24.61;32.49;101174.90;112225;1263;19847;-39
2023/06/13 04:39:40;;;;;;;;;4.00;4.00;;;;;24.61;32.47;101177.92;112082;1247;18818;-39
2023/06/13 04:42:14;;;;;;;;;5.00;4.33;;;;;24.61;32.50;101176.06;112150;1263;19425;-38
2023/06/13 04:44:45;;;;;;;;;6.67;6.67;;;;;24.22;32.90;101180.15;112236;1263;19570;-38
2023/06/13 04:47:13;;;;;;;;;5.00;5.00;;;;;23.29;34.32;101181.11;112141;1263;20206;-37
2023/06/13 04:49:41;;;;;;;;;7.00;7.00;;;;;22.52;35.64;101183.52;112265;1263;19715;-37
2023/06/13 04:52:13;;;;;;;;;7.00;7.00;;;;;21.81;37.31;101180.23;112173;1263;18181;-37
2023/06/13 04:54:41;;;;;;;;;8.00;8.00;;;;;22.17;37.14;101179.61;112333;1263;19969;-37
2023/06/13 04:57:08;;;;;;;;;8.00;7.00;;;;;21.60;37.84;101179.92;112121;1263;20923;-37
2023/06/13 04:59:36;;;;;;;;;7.50;7.00;;;;;21.54;38.37;101174.02;112252;1247;19538;-37
2023/06/13 05:02:03;;;;;;;;;8.00;7.00;;;;;21.99;37.65;101178.04;112114;1247;21293;-37
2023/06/13 05:04:31;;;;;;;;;5.00;5.00;;;;;21.66;37.94;101175.27;112229;1262;21182;-37
2023/06/13 05:06:59;;;;;;;;;10.33;8.00;;;;;21.39;38.77;101179.55;112109;1263;19475;-36
2023/06/13 05:09:27;;;;;;;;;10.00;10.00;;;;;21.52;38.60;101183.29;112236;1263;20053;-37
2023/06/13 05:11:54;;;;;;;;;8.00;8.00;;;;;21.53;38.60;101185.20;112155;1247;20718;-37
2023/06/13 05:14:22;;;;;;;;;7.00;7.00;;;;;21.61;38.53;101187.04;112187;1263;18737;-37
2023/06/13 05:16:50;;;;;;;;;10.00;8.00;;;;;21.81;38.04;101184.11;112140;1247;20143;-39
2023/06/13 05:19:17;;;;;;;;;7.00;7.00;;;;;21.65;38.36;101188.77;112201;1263;19930;-37
2023/06/13 05:21:46;;;;;;;;;7.00;6.50;;;;;21.07;39.39;101190.98;112145;1247;18529;-37
2023/06/13 05:24:14;;;;;;;;;8.67;8.67;;;;;20.81;40.04;101191.23;112162;1247;18790;-37
2023/06/13 05:26:41;;;;;;;;;7.00;7.00;;;;;20.88;40.05;101188.92;112254;1263;20730;-37
2023/06/13 05:29:09;;;;;;;;;5.67;5.67;;;;;21.55;39.00;101185.30;112129;1247;18210;-38
2023/06/13 05:31:37;;;;;;;;;7.00;5.00;;;;;22.23;37.97;101184.58;112266;1263;20074;-38
2023/06/13 05:34:04;;;;;;;;;7.00;7.00;;;;;22.61;37.03;101183.30;112141;1248;21830;-38
2023/06/13 05:36:31;;;;;;;;;5.00;5.00;;;;;22.88;36.67;101184.50;112233;1263;18335;-36
2023/06/13 05:39:00;;;;;;;;;5.67;5.00;;;;;23.10;36.34;101184.66;112155;1263;20155;-38
2023/06/13 05:41:28;;;;;;;;;5.00;4.50;;;;;23.27;36.30;101185.91;112164;1263;20734;-37
2023/06/13 05:43:55;;;;;;;;;5.00;5.00;;;;;23.44;36.31;101192.27;112065;1263;19842;-38
2023/06/13 05:46:23;;;;;;;;;5.00;5.00;;;;;23.58;36.22;101189.83;112164;1263;18792;-37
2023/06/13 05:48:50;;;;;;;;;5.00;5.00;;;;;23.65;36.44;101191.99;112076;1247;22354;-38
2023/06/13 05:51:18;;;;;;;;;7.00;6.00;;;;;23.65;36.29;101194.30;112195;1263;18394;-38
2023/06/13 05:53:46;;;;;;;;;5.00;5.00;;;;;23.68;36.43;101191.04;112116;1248;20259;-37
2023/06/13 05:56:13;;;;;;;;;5.00;5.00;;;;;23.74;36.43;101192.90;112150;1263;20897;-37
2023/06/13 05:58:41;;;;;;;;;4.00;4.00;;;;;23.77;36.34;101191.46;112195;1263;18454;-38
2023/06/13 06:01:10;;;;;;;;;5.00;5.00;;;;;23.80;36.31;101186.55;112139;1263;18612;-37
2023/06/13 06:03:37;;;;;;;;;4.00;4.00;;;;;23.83;35.97;101190.02;112221;1247;19626;-38
2023/06/13 06:06:05;;;;;;;;;4.00;4.00;;;;;23.81;36.00;101193.98;112101;1263;18414;-37
2023/06/13 06:08:32;;;;;;;;;5.00;5.00;;;;;23.84;35.77;101189.78;112178;1247;21372;-38
2023/06/13 06:11:00;;;;;;;;;5.50;5.50;;;;;23.87;35.66;101194.54;112102;1263;19668;-38
2023/06/13 06:13:27;;;;;;;;;4.50;4.00;;;;;23.90;35.51;101199.17;112218;1263;19535;-38
2023/06/13 06:15:55;;;;;;;;;4.00;4.00;;;;;23.92;35.35;101198.54;112118;1263;18624;-39
2023/06/13 06:18:22;;;;;;;;;6.00;5.00;;;;;23.84;35.14;101201.30;112205;1263;21981;-38
2023/06/13 06:20:50;;;;;;;;;8.00;6.67;;;;;23.10;35.16;101198.84;112092;1263;20689;-38
2023/06/13 06:23:17;;;;;;;;;30.00;28.50;;;;;23.12;35.24;101192.08;112194;1263;20086;-40
2023/06/13 06:25:45;;;;;;;;;41.50;32.50;;;;;23.41;35.11;101187.30;112116;1256;19408;-39
2023/06/13 06:28:12;;;;;;;;;45.00;37.00;;;;;23.57;34.83;101187.95;112181;1255;19872;-39
2023/06/13 06:30:40;;;;;;;;;35.50;29.00;;;;;23.68;34.46;101190.58;112079;1263;20428;-37
2023/06/13 06:33:08;;;;;;;;;49.67;43.33;;;;;23.75;34.33;101188.61;112170;1247;20748;-38
2023/06/13 06:35:36;;;;;;;;;54.00;42.50;;;;;23.83;34.45;101187.74;112086;1263;18966;-38
2023/06/13 06:38:03;;;;;;;;;42.00;33.00;;;;;23.87;34.55;101193.14;112144;1263;18950;-38
2023/06/13 06:40:31;;;;;;;;;38.00;33.00;;;;;23.90;34.56;101188.02;112170;1263;19329;-36
2023/06/13 06:42:58;;;;;;;;;38.00;28.50;;;;;23.94;34.34;101192.92;112184;1263;20111;-39
2023/06/13 06:45:25;;;;;;;;;16.00;15.00;;;;;23.99;34.46;101194.89;112177;1263;20411;-38
2023/06/13 06:47:53;;;;;;;;;20.00;17.00;;;;;23.92;34.23;101191.89;112140;1256;20919;-38
2023/06/13 06:50:20;;;;;;;;;15.00;13.00;;;;;23.88;34.51;101192.30;112087;1263;19905;-39
2023/06/13 06:52:48;;;;;;;;;9.00;9.00;;;;;23.72;34.34;101191.29;112155;1263;21238;-37
2023/06/13 06:55:15;;;;;;;;;9.00;8.00;;;;;23.03;35.01;101196.96;112111;1263;20681;-37
2023/06/13 06:57:43;;;;;;;;;8.50;6.00;;;;;23.01;35.18;101195.19;112176;1263;18403;-37
2023/06/13 07:00:14;;;;;;;;;9.00;9.00;;;;;22.92;34.97;101194.59;112059;1263;20150;-38
2023/06/13 07:02:41;;;;;;;;;6.33;6.33;;;;;23.23;34.73;101197.36;112300;1263;19370;-37
2023/06/13 07:05:09;;;;;;;;;8.00;7.00;;;;;23.46;34.60;101195.89;112164;1263;19579;-37
2023/06/13 07:07:37;;;;;;;;;8.00;8.00;;;;;23.63;34.51;101200.79;112232;1263;19219;-37
2023/06/13 07:10:04;;;;;;;;;9.00;6.00;;;;;23.73;34.47;101194.44;112123;1247;20541;-37
2023/06/13 07:12:33;;;;;;;;;6.00;5.33;;;;;23.82;34.50;101198.50;112212;1263;18352;-37
2023/06/13 07:15:00;;;;;;;;;5.50;5.00;;;;;23.87;34.31;101194.16;112068;1263;21171;-37
2023/06/13 07:17:27;;;;;;;;;6.00;6.00;;;;;23.92;34.22;101195.80;112173;1263;21165;-38
2023/06/13 07:19:55;;;;;;;;;9.00;8.00;;;;;23.92;34.37;101191.73;112097;1263;18188;-39
2023/06/13 07:22:22;;;;;;;;;5.00;5.00;;;;;23.74;34.41;101189.70;112210;1263;19984;-39
2023/06/13 07:24:50;;;;;;;;;6.00;6.00;;;;;23.65;34.41;101186.60;112118;1263;20077;-37
2023/06/13 07:27:17;;;;;;;;;4.00;4.00;;;;;23.57;34.73;101187.80;112223;1263;19542;-38
2023/06/13 07:29:45;;;;;;;;;5.00;5.00;;;;;23.16;35.35;101184.52;112089;1263;20449;-37
2023/06/13 07:32:12;;;;;;;;;6.00;6.00;;;;;23.27;35.40;101180.48;112221;1247;20877;-37
2023/06/13 07:34:40;;;;;;;;;6.00;5.50;;;;;23.20;35.65;101179.41;112113;1263;19865;-37
2023/06/13 07:37:07;;;;;;;;;5.00;5.00;;;;;23.35;35.45;101171.96;112229;1263;18665;-37
2023/06/13 07:39:35;;;;;;;;;7.50;7.50;;;;;23.54;35.36;101172.08;112091;1263;19824;-37
2023/06/13 07:42:02;;;;;;;;;5.00;5.00;;;;;23.60;35.14;101167.38;112192;1247;21253;-38
2023/06/13 07:44:30;;;;;;;;;4.00;4.00;;;;;23.60;34.90;101164.95;112139;1263;18762;-37
2023/06/13 07:46:57;;;;;;;;;5.00;5.00;;;;;23.61;34.97;101161.73;112206;1247;20702;-39
2023/06/13 07:49:25;;;;;;;;;5.00;5.00;;;;;23.52;35.02;101164.14;112121;1263;18183;-39
2023/06/13 07:51:52;;;;;;;;;7.00;7.00;;;;;22.89;35.40;101167.73;112227;1263;18626;-38
2023/06/13 07:54:21;;;;;;;;;5.00;5.00;;;;;22.97;35.44;101165.20;112172;1247;19708;-37
2023/06/13 07:56:49;;;;;;;;;4.00;4.00;;;;;23.36;35.13;101165.88;112177;1263;19805;-38
2023/06/13 07:59:17;;;;;;;;;4.00;4.00;;;;;23.55;35.00;101166.87;112244;1263;18958;-38
2023/06/13 08:01:44;;;;;;;;;5.00;4.00;;;;;23.65;34.72;101169.22;112134;1247;20908;-36
2023/06/13 08:04:12;;;;;;;;;6.00;4.50;;;;;23.75;34.62;101175.95;112238;1263;19521;-37
2023/06/13 08:06:40;;;;;;;;;6.00;5.00;;;;;23.81;34.64;101174.66;112147;1263;19074;-37
2023/06/13 08:09:09;;;;;;;;;2.67;2.67;;;;;23.85;34.70;101175.64;112216;1263;21049;-38
2023/06/13 08:11:36;;;;;;;;;6.00;5.00;;;;;23.89;34.70;101177.21;112288;1263;18301;-38
2023/06/13 08:14:07;;;;;;;;;4.00;4.00;;;;;23.90;34.71;101181.95;112216;1263;20174;-38
2023/06/13 08:16:35;;;;;;;;;5.00;5.00;;;;;23.90;34.57;101183.80;112136;1263;21956;-37
2023/06/13 08:19:04;;;;;;;;;4.33;4.00;;;;;23.90;34.41;101177.75;112220;1263;19883;-38
2023/06/13 08:21:31;;;;;;;;;6.00;5.00;;;;;23.90;34.35;101176.28;112284;1263;19970;-38
2023/06/13 08:24:00;;;;;;;;;5.00;5.00;;;;;23.87;34.26;101174.52;112150;1255;20611;-38
2023/06/13 08:26:32;;;;;;;;;5.00;5.00;;;;;23.70;34.68;101170.70;112214;1263;18819;-38
2023/06/13 08:29:01;;;;;;;;;5.33;5.33;;;;;23.56;34.96;101169.98;112158;1263;20320;-39
2023/06/13 08:31:29;;;;;;;;;5.00;4.00;;;;;23.46;35.25;101170.27;112140;1247;22058;-39
2023/06/13 08:33:56;;;;;;;;;5.00;4.00;;;;;23.42;35.60;101167.02;112268;1256;19674;-39
2023/06/13 08:36:24;;;;;;;;;6.00;5.00;;;;;23.44;35.70;101171.41;112164;1263;20450;-39
2023/06/13 08:38:52;;;;;;;;;5.00;5.00;;;;;23.39;35.99;101172.92;112247;1263;19642;-38
2023/06/13 08:41:20;;;;;;;;;5.00;5.00;;;;;23.39;36.06;101173.30;112134;1247;20959;-38
2023/06/13 08:43:47;;;;;;;;;8.00;8.00;;;;;23.39;36.22;101171.14;112194;1248;21471;-39
2023/06/13 08:46:15;;;;;;;;;5.50;5.50;;;;;23.45;36.13;101168.95;112122;1263;20684;-39
2023/06/13 08:48:43;;;;;;;;;5.00;4.67;;;;;23.42;36.27;101177.02;112153;1263;19712;-38
2023/06/13 08:51:13;;;;;;;;;5.00;5.00;;;;;23.47;36.25;101175.46;112077;1263;18705;-38
2023/06/13 08:53:41;;;;;;;;;5.50;5.50;;;;;23.33;36.42;101178.61;112284;1263;20001;-39
2023/06/13 08:56:08;;;;;;;;;5.00;5.00;;;;;23.30;36.59;101178.05;112151;1263;19503;-41
2023/06/13 08:58:36;;;;;;;;;6.00;6.00;;;;;23.35;36.62;101182.33;112314;1247;21349;-39
2023/06/13 09:01:03;;;;;;;;;6.00;6.00;;;;;23.44;36.61;101179.45;112137;1255;22000;-39
2023/06/13 09:03:31;;;;;;;;;8.00;8.00;;;;;23.44;36.74;101177.51;112316;1247;20774;-40
2023/06/13 09:05:58;;;;;;;;;7.00;7.00;;;;;23.44;36.94;101178.19;112148;1247;18951;-39
2023/06/13 09:08:26;;;;;;;;;8.00;5.00;;;;;23.43;36.95;101178.13;112303;1263;20709;-40
2023/06/13 09:10:53;;;;;;;;;6.00;6.00;;;;;23.44;37.04;101171.23;112134;1248;19524;-37
2023/06/13 09:13:21;;;;;;;;;7.00;6.00;;;;;23.41;37.00;101178.41;112316;1263;18929;-38
2023/06/13 09:15:48;;;;;;;;;7.00;7.00;;;;;23.37;37.07;101176.66;112166;1256;20878;-39
2023/06/13 09:18:16;;;;;;;;;7.00;7.00;;;;;23.42;37.04;101178.57;112278;1263;21072;-38
2023/06/13 09:20:43;;;;;;;;;8.00;8.00;;;;;23.25;37.18;101181.52;112153;1263;18911;-38
2023/06/13 09:23:11;;;;;;;;;5.00;5.00;;;;;23.17;37.47;101183.42;112233;1263;19281;-39
2023/06/13 09:25:38;;;;;;;;;8.00;8.00;;;;;22.97;37.61;101183.45;112142;1263;18141;-38
2023/06/13 09:28:06;;;;;;;;;7.50;7.00;;;;;22.93;37.78;101178.99;112218;1256;20157;-38
2023/06/13 09:30:33;;;;;;;;;7.00;7.00;;;;;23.10;37.63;101180.47;112154;1263;20694;-40
2023/06/13 09:33:01;;;;;;;;;7.00;7.00;;;;;23.15;37.46;101178.37;112145;1263;18522;-38
2023/06/13 09:35:28;;;;;;;;;7.00;7.00;;;;;22.97;37.61;101180.77;112114;1263;20279;-38
2023/06/13 09:37:55;;;;;;;;;8.00;7.00;;;;;22.94;37.85;101179.93;112109;1247;19446;-38
2023/06/13 09:40:23;;;;;;;;;7.67;7.00;;;;;22.89;37.77;101176.91;112133;1263;19506;-39
2023/06/13 09:42:50;;;;;;;;;8.00;7.00;;;;;22.89;37.75;101179.23;112064;1263;20112;-38
2023/06/13 09:45:18;;;;;;;;;8.00;7.00;;;;;22.76;37.97;101179.30;112175;1263;22231;-38
2023/06/13 09:47:45;;;;;;;;;6.00;5.00;;;;;22.81;38.02;101178.20;112041;1263;21004;-38
2023/06/13 09:50:13;;;;;;;;;8.00;8.00;;;;;22.77;37.91;101175.19;112124;1263;18830;-37
2023/06/13 09:52:41;;;;;;;;;7.00;6.00;;;;;22.87;37.85;101171.73;112287;1263;22081;-38
2023/06/13 09:55:08;;;;;;;;;7.00;7.00;;;;;22.90;37.80;101165.20;112170;1263;19457;-38
2023/06/13 09:57:36;;;;;;;;;9.00;8.00;;;;;22.81;38.00;101157.41;112214;1263;19945;-38
2023/06/13 10:00:07;;;;;;;;;7.00;7.00;;;;;22.48;38.68;101161.84;112117;1257;19536;-38
2023/06/13 10:02:34;;;;;;;;;7.00;5.00;;;;;22.60;38.56;101155.36;112179;1263;19471;-38
2023/06/13 10:05:02;;;;;;;;;7.00;5.00;;;;;22.65;38.50;101152.39;112264;1263;18516;-37
2023/06/13 10:07:30;;;;;;;;;7.00;7.00;;;;;22.77;38.32;101146.24;112149;1263;22044;-38
2023/06/13 10:09:58;;;;;;;;;8.00;7.00;;;;;22.77;38.29;101143.88;112188;1263;18326;-38
2023/06/13 10:12:26;;;;;;;;;5.00;5.00;;;;;22.86;38.20;101137.73;112169;1263;20128;-39
2023/06/13 10:14:53;;;;;;;;;5.00;4.00;;;;;22.96;38.04;101136.96;112163;1263;20908;-38
2023/06/13 10:17:20;;;;;;;;;7.00;5.67;;;;;22.97;37.95;101134.09;112113;1263;18513;-38
2023/06/13 10:19:48;;;;;;;;;7.00;7.00;;;;;22.89;38.20;101132.11;112166;1263;18904;-38
2023/06/13 10:22:15;;;;;;;;;7.00;7.00;;;;;22.90;38.13;101135.64;112079;1263;19546;-38
2023/06/13 10:24:43;;;;;;;;;7.00;7.00;;;;;22.88;38.29;101130.92;112203;1247;18355;-39
2023/06/13 10:27:10;;;;;;;;;5.00;5.00;;;;;22.45;39.05;101134.20;112094;1263;20207;-38
2023/06/13 10:29:38;;;;;;;;;5.00;5.00;;;;;22.63;39.11;101129.15;112174;1263;19655;-38
2023/06/13 10:32:05;;;;;;;;;8.00;5.00;;;;;22.68;38.82;101125.09;112098;1247;18474;-39
2023/06/13 10:34:34;;;;;;;;;7.50;7.50;;;;;22.44;39.53;101124.45;112145;1263;18642;-40
2023/06/13 10:37:03;;;;;;;;;7.00;6.00;;;;;22.20;39.96;101119.59;112246;1263;21838;-39
2023/06/13 10:39:30;;;;;;;;;7.00;7.00;;;;;22.27;39.96;101114.56;112152;1263;19606;-41
2023/06/13 10:41:58;;;;;;;;;7.50;7.00;;;;;22.26;40.12;101116.88;112153;1263;19946;-39
2023/06/13 10:44:26;;;;;;;;;7.50;5.00;;;;;22.34;40.14;101118.45;112117;1247;19386;-38
2023/06/13 10:46:53;;;;;;;;;8.00;7.00;;;;;22.33;40.15;101118.98;112142;1263;20868;-38
2023/06/13 10:49:21;;;;;;;;;7.00;7.00;;;;;22.23;40.54;101123.11;112113;1263;19975;-38
2023/06/13 10:51:49;;;;;;;;;5.00;5.00;;;;;22.27;40.60;101121.86;112120;1263;20916;-38
2023/06/13 10:54:17;;;;;;;;;8.00;7.00;;;;;21.99;41.18;101113.12;112309;1263;18569;-38
2023/06/13 10:56:45;;;;;;;;;8.00;8.00;;;;;22.09;41.24;101123.59;112135;1263;18947;-39
2023/06/13 10:59:12;;;;;;;;;7.00;7.00;;;;;22.16;41.25;101124.20;112206;1263;19436;-38
2023/06/13 11:01:40;;;;;;;;;8.00;8.00;;;;;22.34;40.94;101124.45;112123;1263;18536;-39
2023/06/13 11:04:07;;;;;;;;;7.33;7.00;;;;;22.22;41.34;101122.42;112196;1263;18930;-38
2023/06/13 11:06:35;;;;;;;;;10.00;8.00;;;;;22.14;41.87;101117.68;112104;1256;21061;-38
2023/06/13 11:09:02;;;;;;;;;9.00;8.00;;;;;22.20;42.63;101127.02;112166;1248;19817;-40
2023/06/13 11:11:30;;;;;;;;;7.67;7.00;;;;;22.00;43.36;101125.84;112090;1263;20260;-40
2023/06/13 11:13:57;;;;;;;;;7.00;7.00;;;;;22.28;42.75;101122.29;112233;1262;20843;-38
2023/06/13 11:16:25;;;;;;;;;8.00;7.00;;;;;22.48;42.45;101122.69;112078;1263;19533;-38
2023/06/13 11:18:52;;;;;;;;;8.00;7.00;;;;;22.43;42.61;101117.83;112222;1247;19883;-39
2023/06/13 11:21:20;;;;;;;;;7.00;7.00;;;;;22.59;42.80;101119.59;112116;1263;21030;-38